createdAt,value
2018-07-14T00:03:06.431Z,23.50
2018-07-14T00:05:35.097Z,23.50
2018-07-14T00:08:03.755Z,23.50
2018-07-14T00:10:32.306Z,23.40
2018-07-14T00:13:00.872Z,23.40
2018-07-14T00:15:29.433Z,23.40
2018-07-14T00:17:58.024Z,23.40
2018-07-14T00:20:26.536Z,23.30
2018-07-14T00:22:55.367Z,23.30
2018-07-14T00:25:29.307Z,23.30
2018-07-14T00:27:57.858Z,23.30
2018-07-14T00:30:26.383Z,23.20
2018-07-14T00:32:54.991Z,23.20
2018-07-14T00:35:23.554Z,23.20
2018-07-14T00:37:52.079Z,23.10
2018-07-14T00:40:20.671Z,23.10
2018-07-14T00:42:49.241Z,23.10
2018-07-14T00:45:17.849Z,23.10
2018-07-14T00:47:46.373Z,23.10
2018-07-14T00:50:14.967Z,23.00
2018-07-14T00:52:43.498Z,23.00
2018-07-14T00:55:12.049Z,23.00
2018-07-14T00:57:40.621Z,22.90
2018-07-14T01:00:09.249Z,22.90
2018-07-14T01:02:37.781Z,22.90
2018-07-14T01:05:06.395Z,22.90
2018-07-14T01:07:34.977Z,22.80
2018-07-14T01:12:31.793Z,22.80
2018-07-14T01:15:00.375Z,22.80
2018-07-14T01:17:28.994Z,22.70
2018-07-14T01:19:58.002Z,22.70
2018-07-14T01:24:54.919Z,22.70
2018-07-14T01:27:23.522Z,22.60
2018-07-14T01:29:52.186Z,22.60
2018-07-14T01:32:20.744Z,22.60
2018-07-14T01:34:49.281Z,22.60
2018-07-14T01:37:18.733Z,22.50
2018-07-14T01:39:47.272Z,22.50
2018-07-14T01:42:15.787Z,22.50
2018-07-14T01:47:12.551Z,22.40
2018-07-14T01:49:41.104Z,22.40
2018-07-14T01:52:09.635Z,22.40
2018-07-14T01:54:38.312Z,22.40
2018-07-14T01:57:06.844Z,22.30
2018-07-14T01:59:35.374Z,22.30
2018-07-14T02:02:03.896Z,22.30
2018-07-14T02:04:32.469Z,22.30
2018-07-14T02:07:01.041Z,22.20
2018-07-14T02:09:29.565Z,22.20
2018-07-14T02:11:58.134Z,22.20
2018-07-14T02:14:26.704Z,22.10
2018-07-14T02:16:55.237Z,22.10
2018-07-14T02:19:23.749Z,22.10
2018-07-14T02:21:52.300Z,22.10
2018-07-14T02:24:20.802Z,22.10
2018-07-14T02:26:49.376Z,22.00
2018-07-14T02:29:18.005Z,22.00
2018-07-14T02:31:46.628Z,22.00
2018-07-14T02:34:15.152Z,22.00
2018-07-14T02:36:43.719Z,22.00
2018-07-14T02:39:12.225Z,21.90
2018-07-14T02:41:40.882Z,21.90
2018-07-14T02:44:09.449Z,21.90
2018-07-14T02:46:38.014Z,21.90
2018-07-14T02:49:06.562Z,21.80
2018-07-14T02:51:35.099Z,21.80
2018-07-14T02:54:03.616Z,21.80
2018-07-14T02:56:32.183Z,21.80
2018-07-14T02:59:00.736Z,21.70
2018-07-14T03:01:29.279Z,21.70
2018-07-14T03:03:57.876Z,21.70
2018-07-14T03:06:26.442Z,21.70
2018-07-14T03:08:54.970Z,21.60
2018-07-14T03:11:23.485Z,21.60
2018-07-14T03:13:52.236Z,21.60
2018-07-14T03:16:20.765Z,21.60
2018-07-14T03:21:17.530Z,21.50
2018-07-14T03:23:46.055Z,21.50
2018-07-14T03:26:14.647Z,21.50
2018-07-14T03:28:43.250Z,21.50
2018-07-14T03:31:11.799Z,21.40
2018-07-14T03:33:40.348Z,21.40
2018-07-14T03:36:08.874Z,21.40
2018-07-14T03:38:37.410Z,21.40
2018-07-14T03:41:06.349Z,21.30
2018-07-14T03:43:34.890Z,21.30
2018-07-14T03:46:03.634Z,21.30
2018-07-14T03:48:32.169Z,21.30
2018-07-14T03:51:00.714Z,21.20
2018-07-14T03:53:29.269Z,21.20
2018-07-14T03:55:57.794Z,21.20
2018-07-14T03:58:26.372Z,21.20
2018-07-14T04:00:54.912Z,21.20
2018-07-14T04:03:23.454Z,21.10
2018-07-14T04:05:52.002Z,21.10
2018-07-14T04:08:20.583Z,21.10
2018-07-14T04:10:49.142Z,21.10
2018-07-14T04:13:17.666Z,21.10
2018-07-14T04:15:46.318Z,21.10
2018-07-14T04:18:14.857Z,21.00
2018-07-14T04:20:43.402Z,21.00
2018-07-14T04:23:11.955Z,21.00
2018-07-14T04:25:40.545Z,21.00
2018-07-14T04:28:09.068Z,21.00
2018-07-14T04:30:37.620Z,20.90
2018-07-14T04:33:06.131Z,20.90
2018-07-14T04:35:34.695Z,20.90
2018-07-14T04:38:03.214Z,20.90
2018-07-14T04:40:31.845Z,20.90
2018-07-14T04:43:00.354Z,20.90
2018-07-14T04:45:28.930Z,20.90
2018-07-14T04:47:57.517Z,20.90
2018-07-14T04:53:05.717Z,20.90
2018-07-14T04:55:34.275Z,20.80
2018-07-14T04:58:02.806Z,20.80
2018-07-14T05:00:31.356Z,20.80
2018-07-14T05:02:59.874Z,20.80
2018-07-14T05:05:28.662Z,20.80
2018-07-14T05:07:57.207Z,20.80
2018-07-14T05:10:25.749Z,20.70
2018-07-14T05:12:54.289Z,20.70
2018-07-14T05:15:22.928Z,20.70
2018-07-14T05:17:51.449Z,20.70
2018-07-14T05:20:20.012Z,20.80
2018-07-14T05:25:16.762Z,20.80
2018-07-14T05:27:45.282Z,20.80
2018-07-14T05:30:13.837Z,20.80
2018-07-14T05:32:42.360Z,20.80
2018-07-14T05:35:10.907Z,20.80
2018-07-14T05:37:39.458Z,20.80
2018-07-14T05:40:08.023Z,20.80
2018-07-14T05:42:36.569Z,20.80
2018-07-14T05:45:05.194Z,20.80
2018-07-14T05:47:33.706Z,20.80
2018-07-14T05:50:02.246Z,20.80
2018-07-14T05:52:30.854Z,20.80
2018-07-14T05:54:59.393Z,20.80
2018-07-14T05:57:27.901Z,20.80
2018-07-14T05:59:56.446Z,20.90
2018-07-14T06:02:24.978Z,20.90
2018-07-14T06:04:53.598Z,20.90
2018-07-14T06:09:50.359Z,20.90
2018-07-14T06:12:18.946Z,20.90
2018-07-14T06:14:47.457Z,20.90
2018-07-14T06:17:16.116Z,20.90
2018-07-14T06:19:44.590Z,20.90
2018-07-14T06:22:13.145Z,20.90
2018-07-14T06:24:41.669Z,20.90
2018-07-14T06:27:10.203Z,20.90
2018-07-14T06:29:38.733Z,20.90
2018-07-14T06:32:07.385Z,20.90
2018-07-14T06:34:35.843Z,20.90
2018-07-14T06:37:04.726Z,20.90
2018-07-14T06:39:33.256Z,20.90
2018-07-14T06:42:01.836Z,20.90
2018-07-14T06:44:30.434Z,20.90
2018-07-14T06:46:58.978Z,20.90
2018-07-14T06:49:27.494Z,20.90
2018-07-14T06:51:56.059Z,20.90
2018-07-14T06:54:24.625Z,20.90
2018-07-14T06:56:53.174Z,20.90
2018-07-14T06:59:21.683Z,20.90
2018-07-14T07:01:50.241Z,21.00
2018-07-14T07:04:18.775Z,21.00
2018-07-14T07:06:47.354Z,21.00
2018-07-14T07:09:16.390Z,20.90
2018-07-14T07:11:44.918Z,20.90
2018-07-14T07:14:13.523Z,21.00
2018-07-14T07:16:42.058Z,21.00
2018-07-14T07:19:10.629Z,21.00
2018-07-14T07:21:39.217Z,21.00
2018-07-14T07:24:07.745Z,21.00
2018-07-14T07:26:38.572Z,21.00
2018-07-14T07:29:07.338Z,21.00
2018-07-14T07:31:35.935Z,21.10
2018-07-14T07:34:05.316Z,21.10
2018-07-14T07:36:33.828Z,21.10
2018-07-14T07:39:02.381Z,21.10
2018-07-14T07:41:30.939Z,21.10
2018-07-14T07:46:27.693Z,21.10
2018-07-14T07:48:56.375Z,21.20
2018-07-14T07:51:24.913Z,21.30
2018-07-14T07:53:53.442Z,21.20
2018-07-14T07:56:21.972Z,21.30
2018-07-14T07:58:50.771Z,21.30
2018-07-14T08:01:19.334Z,21.40
2018-07-14T08:03:47.881Z,21.40
2018-07-14T08:06:16.405Z,21.40
2018-07-14T08:08:45.284Z,21.40
2018-07-14T08:11:13.838Z,21.50
2018-07-14T08:13:42.366Z,21.50
2018-07-14T08:16:11.113Z,21.60
2018-07-14T08:18:39.611Z,21.60
2018-07-14T08:21:08.734Z,21.60
2018-07-14T08:23:37.545Z,21.60
2018-07-14T08:26:06.722Z,21.60
2018-07-14T08:28:35.283Z,21.70
2018-07-14T08:31:03.990Z,21.70
2018-07-14T08:33:32.551Z,21.70
2018-07-14T08:36:01.088Z,21.70
2018-07-14T08:38:29.642Z,21.70
2018-07-14T08:40:58.179Z,21.70
2018-07-14T08:43:26.742Z,21.70
2018-07-14T08:45:55.934Z,21.80
2018-07-14T08:48:24.467Z,21.80
2018-07-14T08:53:21.466Z,21.80
2018-07-14T08:55:49.986Z,21.90
2018-07-14T08:58:18.648Z,21.90
2018-07-14T09:00:47.166Z,21.90
2018-07-14T09:03:15.703Z,21.90
2018-07-14T09:05:44.238Z,21.90
2018-07-14T09:08:12.813Z,22.00
2018-07-14T09:10:41.342Z,22.00
2018-07-14T09:13:09.945Z,22.00
2018-07-14T09:15:38.458Z,22.00
2018-07-14T09:18:07.006Z,22.10
2018-07-14T09:20:35.785Z,22.10
2018-07-14T09:23:04.367Z,22.10
2018-07-14T09:25:32.960Z,22.20
2018-07-14T09:28:01.501Z,22.20
2018-07-14T09:30:30.027Z,22.30
2018-07-14T09:32:58.591Z,22.40
2018-07-14T09:35:27.106Z,22.40
2018-07-14T09:37:55.916Z,22.50
2018-07-14T09:40:24.453Z,22.50
2018-07-14T09:42:52.955Z,22.60
2018-07-14T09:45:21.484Z,22.70
2018-07-14T09:47:50.038Z,22.80
2018-07-14T09:50:18.574Z,22.80
2018-07-14T09:52:47.106Z,23.00
2018-07-14T09:55:15.676Z,23.30
2018-07-14T09:57:44.175Z,23.30
2018-07-14T10:00:18.200Z,23.30
2018-07-14T10:02:46.710Z,23.30
2018-07-14T10:05:15.249Z,23.40
2018-07-14T10:07:43.783Z,23.50
2018-07-14T10:10:12.351Z,23.60
2018-07-14T10:12:40.906Z,23.70
2018-07-14T10:15:09.514Z,23.80
2018-07-14T10:17:38.035Z,23.80
2018-07-14T10:20:06.714Z,23.80
2018-07-14T10:22:35.225Z,23.80
2018-07-14T10:25:03.838Z,23.80
2018-07-14T10:27:32.343Z,23.90
2018-07-14T10:30:00.901Z,24.00
2018-07-14T10:32:29.446Z,24.10
2018-07-14T10:34:57.999Z,24.10
2018-07-14T10:37:26.503Z,24.10
2018-07-14T10:39:55.044Z,24.20
2018-07-14T10:42:23.577Z,24.40
2018-07-14T10:44:52.134Z,24.50
2018-07-14T10:47:20.646Z,24.70
2018-07-14T10:49:49.210Z,24.90
2018-07-14T10:52:17.734Z,25.00
2018-07-14T10:54:46.262Z,25.10
2018-07-14T10:57:14.756Z,25.20
2018-07-14T10:59:43.311Z,25.00
2018-07-14T11:02:11.838Z,24.70
2018-07-14T11:04:40.371Z,24.50
2018-07-14T11:07:08.945Z,24.50
2018-07-14T11:09:37.513Z,24.50
2018-07-14T11:12:06.067Z,24.80
2018-07-14T11:14:34.566Z,25.10
2018-07-14T11:17:03.114Z,25.30
2018-07-14T11:19:31.625Z,25.00
2018-07-14T11:22:00.185Z,24.80
2018-07-14T11:24:28.719Z,24.70
2018-07-14T11:26:57.233Z,25.00
2018-07-14T11:29:25.763Z,25.20
2018-07-14T11:31:54.293Z,25.50
2018-07-14T11:34:22.821Z,25.70
2018-07-14T11:36:51.579Z,25.90
2018-07-14T11:39:20.101Z,26.10
2018-07-14T11:41:48.680Z,26.10
2018-07-14T11:44:17.185Z,26.00
2018-07-14T11:46:45.702Z,26.00
2018-07-14T11:49:14.235Z,25.80
2018-07-14T11:51:42.806Z,25.60
2018-07-14T11:54:11.383Z,25.60
2018-07-14T11:56:39.880Z,25.90
2018-07-14T11:59:08.394Z,26.10
2018-07-14T12:01:36.935Z,26.20
2018-07-14T12:04:05.499Z,26.20
2018-07-14T12:06:34.139Z,26.10
2018-07-14T12:09:02.726Z,25.70
2018-07-14T12:11:31.269Z,25.40
2018-07-14T12:13:59.821Z,25.30
2018-07-14T12:16:28.351Z,25.10
2018-07-14T12:18:56.877Z,25.30
2018-07-14T12:21:25.418Z,25.60
2018-07-14T12:23:53.926Z,25.80
2018-07-14T12:26:22.511Z,26.00
2018-07-14T12:28:51.055Z,26.10
2018-07-14T12:31:19.616Z,26.10
2018-07-14T12:33:48.156Z,26.30
2018-07-14T12:36:16.686Z,26.40
2018-07-14T12:38:45.275Z,26.40
2018-07-14T12:41:13.938Z,26.30
2018-07-14T12:43:42.531Z,26.30
2018-07-14T12:46:11.089Z,26.40
2018-07-14T12:48:39.601Z,26.50
2018-07-14T12:51:08.134Z,26.50
2018-07-14T12:53:36.647Z,26.50
2018-07-14T12:56:05.258Z,26.50
2018-07-14T12:58:33.829Z,26.50
2018-07-14T13:01:02.385Z,26.50
2018-07-14T13:03:30.984Z,26.60
2018-07-14T13:05:59.594Z,26.50
2018-07-14T13:08:28.137Z,26.50
2018-07-14T13:10:56.654Z,26.40
2018-07-14T13:13:25.193Z,26.30
2018-07-14T13:15:53.702Z,26.20
2018-07-14T13:18:22.235Z,26.10
2018-07-14T13:20:50.749Z,26.00
2018-07-14T13:23:19.315Z,25.90
2018-07-14T13:25:48.243Z,25.90
2018-07-14T13:28:16.779Z,25.80
2018-07-14T13:30:45.371Z,25.80
2018-07-14T13:33:13.940Z,25.70
2018-07-14T13:35:42.491Z,25.70
2018-07-14T13:38:11.052Z,25.70
2018-07-14T13:40:39.602Z,25.60
2018-07-14T13:43:08.236Z,25.60
2018-07-14T13:45:36.792Z,25.60
2018-07-14T13:48:05.458Z,25.60
2018-07-14T13:50:36.315Z,25.70
2018-07-14T13:53:04.973Z,25.70
2018-07-14T13:55:33.798Z,25.70
2018-07-14T13:58:02.333Z,25.80
2018-07-14T14:00:30.910Z,25.80
2018-07-14T14:02:59.451Z,25.90
2018-07-14T14:05:29.531Z,25.90
2018-07-14T14:07:58.078Z,25.90
2018-07-14T14:10:26.594Z,25.90
2018-07-14T14:12:55.143Z,25.90
2018-07-14T14:15:23.668Z,25.90
2018-07-14T14:17:52.229Z,25.90
2018-07-14T14:20:20.742Z,25.90
2018-07-14T14:22:50.113Z,25.90
2018-07-14T14:25:18.629Z,25.90
2018-07-14T14:27:47.161Z,25.90
2018-07-14T14:30:15.713Z,25.90
2018-07-14T14:32:44.244Z,25.80
2018-07-14T14:35:12.759Z,25.80
2018-07-14T14:37:41.295Z,25.70
2018-07-14T14:40:09.863Z,25.70
2018-07-14T14:42:38.463Z,25.70
2018-07-14T14:45:07.341Z,25.70
2018-07-14T14:47:35.906Z,25.70
2018-07-14T14:50:04.889Z,25.70
2018-07-14T14:52:33.447Z,25.70
2018-07-14T14:55:02.124Z,25.80
2018-07-14T14:57:30.689Z,25.80
2018-07-14T14:59:59.205Z,25.80
2018-07-14T15:02:27.742Z,25.80
2018-07-14T15:04:56.295Z,25.80
2018-07-14T15:07:24.908Z,25.80
2018-07-14T15:09:53.458Z,25.80
2018-07-14T15:12:21.985Z,25.80
2018-07-14T15:14:50.519Z,25.80
2018-07-14T15:17:19.045Z,25.70
2018-07-14T15:19:47.699Z,25.70
2018-07-14T15:22:16.245Z,25.70
2018-07-14T15:24:45.186Z,25.70
2018-07-14T15:27:13.736Z,25.60
2018-07-14T15:29:42.322Z,25.60
2018-07-14T15:32:11.126Z,25.60
2018-07-14T15:34:40.001Z,25.60
2018-07-14T15:37:09.154Z,25.60
2018-07-14T15:39:38.209Z,25.50
2018-07-14T15:42:07.303Z,25.50
2018-07-14T15:44:36.498Z,25.50
2018-07-14T15:47:05.381Z,25.50
2018-07-14T15:49:33.977Z,25.50
2018-07-14T15:52:02.634Z,25.50
2018-07-14T15:54:31.406Z,25.50
2018-07-14T15:56:59.933Z,25.50
2018-07-14T15:59:28.597Z,25.50
2018-07-14T16:01:57.309Z,25.50
2018-07-14T16:04:25.952Z,25.50
2018-07-14T16:06:54.618Z,25.50
2018-07-14T16:09:23.430Z,25.50
2018-07-14T16:11:52.045Z,25.50
2018-07-14T16:14:20.601Z,25.50
2018-07-14T16:16:49.201Z,25.40
2018-07-14T16:19:17.737Z,25.40
2018-07-14T16:21:46.313Z,25.40
2018-07-14T16:24:14.977Z,25.30
2018-07-14T16:26:43.527Z,25.30
2018-07-14T16:31:40.347Z,25.30
2018-07-14T16:34:09.038Z,25.30
2018-07-14T16:36:37.656Z,25.30
2018-07-14T16:39:08.610Z,25.30
2018-07-14T16:41:37.255Z,25.30
2018-07-14T16:44:05.837Z,25.30
2018-07-14T16:46:34.608Z,25.30
2018-07-14T16:49:03.339Z,25.30
2018-07-14T16:51:32.106Z,25.30
2018-07-14T16:54:01.194Z,25.30
2018-07-14T16:56:30.023Z,25.30
2018-07-14T16:58:58.582Z,25.30
2018-07-14T17:01:27.289Z,25.30
2018-07-14T17:03:56.011Z,25.30
2018-07-14T17:06:24.800Z,25.20
2018-07-14T17:08:53.354Z,25.20
2018-07-14T17:11:21.895Z,25.10
2018-07-14T17:13:50.433Z,25.10
2018-07-14T17:16:19.251Z,25.10
2018-07-14T17:18:47.769Z,25.10
2018-07-14T17:21:16.342Z,25.10
2018-07-14T17:23:44.858Z,25.10
2018-07-14T17:26:13.390Z,25.10
2018-07-14T17:28:41.960Z,25.00
2018-07-14T17:31:10.543Z,25.00
2018-07-14T17:33:39.166Z,25.00
2018-07-14T17:36:07.732Z,25.00
2018-07-14T17:38:36.251Z,25.00
2018-07-14T17:41:04.804Z,25.00
2018-07-14T17:43:33.347Z,25.00
2018-07-14T17:46:01.900Z,25.00
2018-07-14T17:48:30.529Z,24.90
2018-07-14T17:50:59.216Z,24.90
2018-07-14T17:53:27.770Z,24.90
2018-07-14T17:55:56.325Z,24.90
2018-07-14T17:58:24.860Z,24.90
2018-07-14T18:00:53.673Z,24.90
2018-07-14T18:03:22.190Z,24.90
2018-07-14T18:05:50.732Z,24.90
2018-07-14T18:08:19.287Z,24.80
2018-07-14T18:10:47.929Z,24.90
2018-07-14T18:13:16.458Z,24.80
2018-07-14T18:15:45.031Z,24.80
2018-07-14T18:18:13.546Z,24.80
2018-07-14T18:20:42.066Z,24.80
2018-07-14T18:23:10.609Z,24.80
2018-07-14T18:25:39.239Z,24.80
2018-07-14T18:28:07.779Z,24.70
2018-07-14T18:30:36.284Z,24.70
2018-07-14T18:33:04.852Z,24.70
2018-07-14T18:35:33.371Z,24.70
2018-07-14T18:38:01.909Z,24.70
2018-07-14T18:40:30.425Z,24.70
2018-07-14T18:42:59.083Z,24.60
2018-07-14T18:45:27.681Z,24.60
2018-07-14T18:47:56.272Z,24.60
2018-07-14T18:50:24.833Z,24.60
2018-07-14T18:52:53.417Z,24.60
2018-07-14T18:55:21.945Z,24.60
2018-07-14T18:57:50.718Z,24.60
2018-07-14T19:00:19.253Z,24.50
2018-07-14T19:02:47.805Z,24.50
2018-07-14T19:05:16.340Z,24.50
2018-07-14T19:07:44.963Z,24.50
2018-07-14T19:10:13.478Z,24.50
2018-07-14T19:15:10.411Z,24.40
2018-07-14T19:17:38.977Z,24.40
2018-07-14T19:20:07.811Z,24.40
2018-07-14T19:22:36.343Z,24.40
2018-07-14T19:25:04.929Z,24.40
2018-07-14T19:27:33.465Z,24.30
2018-07-14T19:30:02.010Z,24.30
2018-07-14T19:32:30.545Z,24.30
2018-07-14T19:34:59.094Z,24.30
2018-07-14T19:37:27.627Z,24.30
2018-07-14T19:39:56.213Z,24.20
2018-07-14T19:42:25.023Z,24.20
2018-07-14T19:44:54.924Z,24.20
2018-07-14T19:47:23.626Z,24.20
2018-07-14T19:49:52.175Z,24.20
2018-07-14T19:52:20.892Z,24.10
2018-07-14T19:54:49.577Z,24.10
2018-07-14T19:57:18.186Z,24.10
2018-07-14T19:59:46.841Z,24.10
2018-07-14T20:02:15.363Z,24.00
2018-07-14T20:04:44.013Z,24.00
2018-07-14T20:07:12.779Z,24.00
2018-07-14T20:09:41.581Z,24.00
2018-07-14T20:12:10.393Z,23.90
2018-07-14T20:14:38.931Z,23.90
2018-07-14T20:17:07.706Z,23.90
2018-07-14T20:19:36.332Z,23.90
2018-07-14T20:22:04.868Z,23.80
2018-07-14T20:24:33.643Z,23.80
2018-07-14T20:27:02.192Z,23.80
2018-07-14T20:29:30.991Z,23.80
2018-07-14T20:31:59.570Z,23.80
2018-07-14T20:34:28.189Z,23.70
2018-07-14T20:39:25.071Z,23.70
2018-07-14T20:41:53.770Z,23.70
2018-07-14T20:44:22.279Z,23.70
2018-07-14T20:46:50.831Z,23.70
2018-07-14T20:49:19.389Z,23.60
2018-07-14T20:51:48.122Z,23.60
2018-07-14T20:54:16.827Z,23.60
2018-07-14T20:56:45.375Z,23.50
2018-07-14T20:59:14.021Z,23.50
2018-07-14T21:01:42.638Z,23.50
2018-07-14T21:04:11.191Z,23.50
2018-07-14T21:06:39.749Z,23.40
2018-07-14T21:09:08.433Z,23.40
2018-07-14T21:11:36.971Z,23.40
2018-07-14T21:14:05.710Z,23.40
2018-07-14T21:16:34.258Z,23.40
2018-07-14T21:19:03.073Z,23.30
2018-07-14T21:21:31.778Z,23.30
2018-07-14T21:24:00.543Z,23.30
2018-07-14T21:26:29.219Z,23.30
2018-07-14T21:28:57.814Z,23.20
2018-07-14T21:31:26.503Z,23.20
2018-07-14T21:33:55.122Z,23.20
2018-07-14T21:36:23.771Z,23.20
2018-07-14T21:38:52.437Z,23.10
2018-07-14T21:41:21.115Z,23.10
2018-07-14T21:43:49.918Z,23.10
2018-07-14T21:46:19.248Z,23.10
2018-07-14T21:48:48.569Z,23.00
2018-07-14T21:51:17.262Z,23.00
2018-07-14T21:53:46.012Z,23.00
2018-07-14T21:56:14.729Z,23.00
2018-07-14T21:58:43.338Z,23.00
2018-07-14T22:01:17.469Z,22.90
2018-07-14T22:03:46.166Z,22.90
2018-07-14T22:06:14.714Z,22.90
2018-07-14T22:08:43.548Z,22.90
2018-07-14T22:11:12.234Z,22.80
2018-07-14T22:13:40.945Z,22.90
2018-07-14T22:16:09.786Z,22.80
2018-07-14T22:18:38.485Z,22.80
2018-07-14T22:21:07.091Z,22.80
2018-07-14T22:23:35.679Z,22.70
2018-07-14T22:26:04.240Z,22.70
2018-07-14T22:28:32.869Z,22.70
2018-07-14T22:31:01.450Z,22.70
2018-07-14T22:33:29.974Z,22.60
2018-07-14T22:35:58.551Z,22.60
2018-07-14T22:38:27.099Z,22.60
2018-07-14T22:40:55.651Z,22.60
2018-07-14T22:43:24.190Z,22.50
2018-07-14T22:45:52.757Z,22.50
2018-07-14T22:48:21.466Z,22.50
2018-07-14T22:50:50.025Z,22.50
2018-07-14T22:53:18.580Z,22.50
2018-07-14T22:55:47.131Z,22.40
2018-07-14T22:58:15.649Z,22.40
2018-07-14T23:00:44.204Z,22.40
2018-07-14T23:03:12.726Z,22.40
2018-07-14T23:05:41.286Z,22.40
2018-07-14T23:08:09.833Z,22.30
2018-07-14T23:10:38.390Z,22.30
2018-07-14T23:13:06.913Z,22.30
2018-07-14T23:15:35.450Z,22.20
2018-07-14T23:18:04.113Z,22.20
2018-07-14T23:20:32.671Z,22.20
2018-07-14T23:23:01.190Z,22.20
2018-07-14T23:25:29.730Z,22.10
2018-07-14T23:27:58.237Z,22.10
2018-07-14T23:30:26.875Z,22.10
2018-07-14T23:32:55.402Z,22.10
2018-07-14T23:35:23.948Z,22.10
2018-07-14T23:37:52.491Z,22.10
2018-07-14T23:40:21.034Z,22.00
2018-07-14T23:42:49.579Z,22.00
2018-07-14T23:45:18.102Z,22.00
2018-07-14T23:47:46.654Z,22.00
2018-07-14T23:50:15.178Z,21.90
2018-07-14T23:52:43.729Z,21.90
2018-07-14T23:55:12.288Z,21.90
2018-07-14T23:57:40.850Z,21.90
